sensor_id;sensor_type;location;lat;lon;timestamp;pressure;altitude;pressure_sealevel;temperature;humidity
55755;BME280;41674;52.290;-1.474;2023-07-09T00:00:55;101088.41;;;20.15;81.41
55755;BME280;41674;52.290;-1.474;2023-07-09T00:03:24;101089.19;;;19.15;85.08
55755;BME280;41674;52.290;-1.474;2023-07-09T00:05:54;101090.47;;;19.68;83.23
55755;BME280;41674;52.290;-1.474;2023-07-09T00:08:27;101089.71;;;19.62;83.19
55755;BME280;41674;52.290;-1.474;2023-07-09T00:10:53;101094.02;;;16.99;94.05
55755;BME280;41674;52.290;-1.474;2023-07-09T00:13:23;101091.73;;;16.47;96.56
55755;BME280;41674;52.290;-1.474;2023-07-09T00:15:54;101084.48;;;18.69;85.69
55755;BME280;41674;52.290;-1.474;2023-07-09T00:18:21;101084.23;;;19.32;84.34
55755;BME280;41674;52.290;-1.474;2023-07-09T00:20:51;101086.15;;;19.54;81.28
55755;BME280;41674;52.290;-1.474;2023-07-09T00:23:20;101087.99;;;19.34;80.76
55755;BME280;41674;52.290;-1.474;2023-07-09T00:25:50;101088.05;;;18.82;81.97
55755;BME280;41674;52.290;-1.474;2023-07-09T00:28:20;101083.84;;;18.37;86.00
55755;BME280;41674;52.290;-1.474;2023-07-09T00:30:50;101084.17;;;18.22;86.21
55755;BME280;41674;52.290;-1.474;2023-07-09T00:33:18;101080.78;;;19.19;82.44
55755;BME280;41674;52.290;-1.474;2023-07-09T00:35:48;101083.13;;;19.01;83.42
55755;BME280;41674;52.290;-1.474;2023-07-09T00:38:21;101081.37;;;18.76;81.94
55755;BME280;41674;52.290;-1.474;2023-07-09T00:40:56;101085.40;;;18.94;81.58
55755;BME280;41674;52.290;-1.474;2023-07-09T00:43:17;101086.63;;;19.10;81.88
55755;BME280;41674;52.290;-1.474;2023-07-09T00:48:16;101096.61;;;18.64;83.73
55755;BME280;41674;52.290;-1.474;2023-07-09T00:50:48;101085.93;;;19.13;82.35
55755;BME280;41674;52.290;-1.474;2023-07-09T00:53:18;101090.43;;;18.84;83.57
55755;BME280;41674;52.290;-1.474;2023-07-09T00:55:47;101092.55;;;19.26;82.20
55755;BME280;41674;52.290;-1.474;2023-07-09T00:58:15;101089.39;;;18.75;82.54
55755;BME280;41674;52.290;-1.474;2023-07-09T01:00:45;101092.16;;;19.26;81.66
55755;BME280;41674;52.290;-1.474;2023-07-09T01:03:18;101098.31;;;18.92;81.00
55755;BME280;41674;52.290;-1.474;2023-07-09T01:05:42;101104.26;;;19.16;79.87
55755;BME280;41674;52.290;-1.474;2023-07-09T01:08:12;101109.73;;;19.29;80.34
55755;BME280;41674;52.290;-1.474;2023-07-09T01:10:41;101112.82;;;19.24;80.73
55755;BME280;41674;52.290;-1.474;2023-07-09T01:13:11;101111.33;;;19.30;80.64
55755;BME280;41674;52.290;-1.474;2023-07-09T01:15:41;101109.67;;;19.63;80.39
55755;BME280;41674;52.290;-1.474;2023-07-09T01:18:10;101109.77;;;18.84;83.05
55755;BME280;41674;52.290;-1.474;2023-07-09T01:20:40;101109.06;;;19.17;81.52
55755;BME280;41674;52.290;-1.474;2023-07-09T01:23:09;101105.17;;;18.69;81.61
55755;BME280;41674;52.290;-1.474;2023-07-09T01:25:46;101105.84;;;18.82;83.30
55755;BME280;41674;52.290;-1.474;2023-07-09T01:28:08;101109.10;;;19.14;81.17
55755;BME280;41674;52.290;-1.474;2023-07-09T01:30:40;101113.05;;;18.70;83.51
55755;BME280;41674;52.290;-1.474;2023-07-09T01:33:08;101108.56;;;19.03;82.57
55755;BME280;41674;52.290;-1.474;2023-07-09T01:35:39;101108.42;;;19.14;82.37
55755;BME280;41674;52.290;-1.474;2023-07-09T01:38:06;101110.24;;;19.19;80.60
55755;BME280;41674;52.290;-1.474;2023-07-09T01:40:36;101108.38;;;19.18;81.84
55755;BME280;41674;52.290;-1.474;2023-07-09T01:43:06;101108.73;;;19.20;81.15
55755;BME280;41674;52.290;-1.474;2023-07-09T01:45:36;101112.46;;;19.12;81.21
55755;BME280;41674;52.290;-1.474;2023-07-09T01:48:05;101114.72;;;19.05;80.68
55755;BME280;41674;52.290;-1.474;2023-07-09T01:50:34;101114.36;;;18.74;81.94
55755;BME280;41674;52.290;-1.474;2023-07-09T01:53:04;101112.18;;;19.06;80.64
55755;BME280;41674;52.290;-1.474;2023-07-09T01:55:33;101109.22;;;18.15;84.15
55755;BME280;41674;52.290;-1.474;2023-07-09T01:58:03;101112.30;;;19.07;82.21
55755;BME280;41674;52.290;-1.474;2023-07-09T02:00:33;101111.51;;;18.94;82.97
55755;BME280;41674;52.290;-1.474;2023-07-09T02:03:02;101119.06;;;18.80;83.59
55755;BME280;41674;52.290;-1.474;2023-07-09T02:05:32;101122.37;;;19.03;83.40
55755;BME280;41674;52.290;-1.474;2023-07-09T02:08:01;101121.74;;;18.62;83.70
55755;BME280;41674;52.290;-1.474;2023-07-09T02:10:30;101122.62;;;18.93;83.52
55755;BME280;41674;52.290;-1.474;2023-07-09T02:13:00;101121.61;;;18.54;85.07
55755;BME280;41674;52.290;-1.474;2023-07-09T02:15:29;101121.39;;;18.88;83.11
55755;BME280;41674;52.290;-1.474;2023-07-09T02:17:59;101121.21;;;18.18;85.28
55755;BME280;41674;52.290;-1.474;2023-07-09T02:20:28;101120.50;;;18.68;82.22
55755;BME280;41674;52.290;-1.474;2023-07-09T02:22:58;101120.17;;;18.75;82.12
55755;BME280;41674;52.290;-1.474;2023-07-09T02:25:27;101117.72;;;19.28;81.87
55755;BME280;41674;52.290;-1.474;2023-07-09T02:27:57;101114.99;;;19.20;81.60
55755;BME280;41674;52.290;-1.474;2023-07-09T02:30:26;101111.28;;;19.19;81.92
55755;BME280;41674;52.290;-1.474;2023-07-09T02:32:56;101107.51;;;19.01;81.96
55755;BME280;41674;52.290;-1.474;2023-07-09T02:35:25;101099.38;;;19.33;80.93
55755;BME280;41674;52.290;-1.474;2023-07-09T02:37:55;101099.48;;;19.29;80.50
55755;BME280;41674;52.290;-1.474;2023-07-09T02:40:24;101105.95;;;19.09;80.91
55755;BME280;41674;52.290;-1.474;2023-07-09T02:42:54;101110.79;;;18.99;80.17
55755;BME280;41674;52.290;-1.474;2023-07-09T02:45:24;101119.10;;;18.51;81.02
55755;BME280;41674;52.290;-1.474;2023-07-09T02:47:53;101122.97;;;19.10;80.50
55755;BME280;41674;52.290;-1.474;2023-07-09T02:50:22;101119.46;;;18.55;81.74
55755;BME280;41674;52.290;-1.474;2023-07-09T02:52:52;101128.23;;;17.97;85.09
55755;BME280;41674;52.290;-1.474;2023-07-09T02:55:22;101127.93;;;18.33;83.52
55755;BME280;41674;52.290;-1.474;2023-07-09T02:57:51;101130.51;;;18.60;82.77
55755;BME280;41674;52.290;-1.474;2023-07-09T03:00:21;101143.80;;;18.41;83.60
55755;BME280;41674;52.290;-1.474;2023-07-09T03:02:50;101145.05;;;18.05;82.88
55755;BME280;41674;52.290;-1.474;2023-07-09T03:05:20;101148.02;;;18.40;82.41
55755;BME280;41674;52.290;-1.474;2023-07-09T03:07:49;101146.04;;;18.37;82.63
55755;BME280;41674;52.290;-1.474;2023-07-09T03:10:19;101138.16;;;18.32;82.23
55755;BME280;41674;52.290;-1.474;2023-07-09T03:12:48;101140.01;;;18.55;82.19
55755;BME280;41674;52.290;-1.474;2023-07-09T03:15:18;101139.17;;;18.67;81.70
55755;BME280;41674;52.290;-1.474;2023-07-09T03:17:48;101138.47;;;18.75;81.09
55755;BME280;41674;52.290;-1.474;2023-07-09T03:20:17;101140.00;;;18.71;80.92
55755;BME280;41674;52.290;-1.474;2023-07-09T03:22:46;101138.07;;;18.54;81.23
55755;BME280;41674;52.290;-1.474;2023-07-09T03:25:16;101135.64;;;18.86;80.23
55755;BME280;41674;52.290;-1.474;2023-07-09T03:27:47;101133.34;;;18.58;81.09
55755;BME280;41674;52.290;-1.474;2023-07-09T03:30:15;101134.03;;;18.70;80.68
55755;BME280;41674;52.290;-1.474;2023-07-09T03:32:45;101133.10;;;18.83;79.95
55755;BME280;41674;52.290;-1.474;2023-07-09T03:35:14;101129.07;;;18.71;80.31
55755;BME280;41674;52.290;-1.474;2023-07-09T03:37:43;101128.40;;;18.78;79.98
55755;BME280;41674;52.290;-1.474;2023-07-09T03:40:20;101134.99;;;18.54;80.20
55755;BME280;41674;52.290;-1.474;2023-07-09T03:42:43;101140.57;;;18.47;79.22
55755;BME280;41674;52.290;-1.474;2023-07-09T03:45:12;101137.33;;;18.63;79.42
55755;BME280;41674;52.290;-1.474;2023-07-09T03:47:42;101144.05;;;18.69;78.23
55755;BME280;41674;52.290;-1.474;2023-07-09T03:50:11;101148.90;;;19.02;77.05
55755;BME280;41674;52.290;-1.474;2023-07-09T03:52:41;101151.54;;;18.83;76.81
55755;BME280;41674;52.290;-1.474;2023-07-09T03:55:10;101157.60;;;19.00;76.04
55755;BME280;41674;52.290;-1.474;2023-07-09T03:57:40;101157.53;;;19.07;75.83
55755;BME280;41674;52.290;-1.474;2023-07-09T04:00:10;101154.23;;;18.69;77.10
55755;BME280;41674;52.290;-1.474;2023-07-09T04:02:40;101152.32;;;18.57;76.92
55755;BME280;41674;52.290;-1.474;2023-07-09T04:05:09;101142.97;;;18.36;78.50
55755;BME280;41674;52.290;-1.474;2023-07-09T04:07:38;101137.57;;;18.94;76.86
55755;BME280;41674;52.290;-1.474;2023-07-09T04:10:08;101136.57;;;19.17;77.11
55755;BME280;41674;52.290;-1.474;2023-07-09T04:12:37;101138.84;;;18.51;78.00
55755;BME280;41674;52.290;-1.474;2023-07-09T04:15:08;101139.88;;;18.91;78.30
55755;BME280;41674;52.290;-1.474;2023-07-09T04:17:36;101139.83;;;18.89;78.69
55755;BME280;41674;52.290;-1.474;2023-07-09T04:20:07;101138.66;;;18.57;79.78
55755;BME280;41674;52.290;-1.474;2023-07-09T04:22:35;101129.55;;;18.58;80.01
55755;BME280;41674;52.290;-1.474;2023-07-09T04:25:07;101134.48;;;18.73;79.62
55755;BME280;41674;52.290;-1.474;2023-07-09T04:27:34;101142.65;;;18.72;79.66
55755;BME280;41674;52.290;-1.474;2023-07-09T04:30:05;101152.96;;;18.57;80.26
55755;BME280;41674;52.290;-1.474;2023-07-09T04:32:33;101165.71;;;18.64;80.44
55755;BME280;41674;52.290;-1.474;2023-07-09T04:35:04;101168.68;;;16.79;85.37
55755;BME280;41674;52.290;-1.474;2023-07-09T04:37:33;101174.69;;;15.86;89.25
55755;BME280;41674;52.290;-1.474;2023-07-09T04:40:02;101178.26;;;16.32;88.22
55755;BME280;41674;52.290;-1.474;2023-07-09T04:42:32;101178.31;;;17.12;86.57
55755;BME280;41674;52.290;-1.474;2023-07-09T04:45:01;101182.14;;;16.94;86.71
55755;BME280;41674;52.290;-1.474;2023-07-09T04:47:30;101178.58;;;17.13;86.23
55755;BME280;41674;52.290;-1.474;2023-07-09T04:50:01;101174.15;;;17.75;84.49
55755;BME280;41674;52.290;-1.474;2023-07-09T04:52:30;101171.67;;;17.86;83.79
55755;BME280;41674;52.290;-1.474;2023-07-09T04:55:00;101167.20;;;18.18;84.17
55755;BME280;41674;52.290;-1.474;2023-07-09T04:57:29;101160.93;;;17.76;83.91
55755;BME280;41674;52.290;-1.474;2023-07-09T04:59:58;101162.12;;;17.37;85.67
55755;BME280;41674;52.290;-1.474;2023-07-09T05:02:28;101166.88;;;18.24;82.50
55755;BME280;41674;52.290;-1.474;2023-07-09T05:04:57;101169.19;;;18.29;81.75
55755;BME280;41674;52.290;-1.474;2023-07-09T05:07:27;101171.36;;;18.58;81.47
55755;BME280;41674;52.290;-1.474;2023-07-09T05:09:57;101165.38;;;18.80;80.01
55755;BME280;41674;52.290;-1.474;2023-07-09T05:12:27;101178.75;;;18.38;81.27
55755;BME280;41674;52.290;-1.474;2023-07-09T05:14:56;101184.52;;;18.29;81.20
55755;BME280;41674;52.290;-1.474;2023-07-09T05:17:25;101176.01;;;18.35;80.50
55755;BME280;41674;52.290;-1.474;2023-07-09T05:19:55;101165.19;;;18.42;81.04
55755;BME280;41674;52.290;-1.474;2023-07-09T05:22:26;101158.97;;;18.81;76.32
55755;BME280;41674;52.290;-1.474;2023-07-09T05:24:56;101161.14;;;19.25;72.98
55755;BME280;41674;52.290;-1.474;2023-07-09T05:27:26;101152.32;;;19.98;70.80
55755;BME280;41674;52.290;-1.474;2023-07-09T05:29:56;101147.84;;;19.78;69.61
55755;BME280;41674;52.290;-1.474;2023-07-09T05:32:26;101157.49;;;20.13;69.10
55755;BME280;41674;52.290;-1.474;2023-07-09T05:34:56;101167.85;;;20.33;67.98
55755;BME280;41674;52.290;-1.474;2023-07-09T05:37:26;101177.19;;;20.31;67.67
55755;BME280;41674;52.290;-1.474;2023-07-09T05:39:56;101174.49;;;20.19;67.54
55755;BME280;41674;52.290;-1.474;2023-07-09T05:42:26;101170.03;;;18.93;71.27
55755;BME280;41674;52.290;-1.474;2023-07-09T05:44:57;101167.48;;;19.56;69.86
55755;BME280;41674;52.290;-1.474;2023-07-09T05:47:27;101169.62;;;20.49;67.75
55755;BME280;41674;52.290;-1.474;2023-07-09T05:49:57;101171.97;;;21.10;67.21
55755;BME280;41674;52.290;-1.474;2023-07-09T05:52:27;101177.27;;;20.74;67.62
55755;BME280;41674;52.290;-1.474;2023-07-09T05:54:56;101177.70;;;20.94;66.68
55755;BME280;41674;52.290;-1.474;2023-07-09T05:57:26;101174.56;;;20.88;67.00
55755;BME280;41674;52.290;-1.474;2023-07-09T05:59:56;101162.52;;;21.15;67.21
55755;BME280;41674;52.290;-1.474;2023-07-09T06:02:26;101167.34;;;21.17;66.81
55755;BME280;41674;52.290;-1.474;2023-07-09T06:04:56;101172.32;;;21.03;65.88
55755;BME280;41674;52.290;-1.474;2023-07-09T06:07:26;101176.40;;;20.85;66.23
55755;BME280;41674;52.290;-1.474;2023-07-09T06:09:55;101182.59;;;21.09;66.48
55755;BME280;41674;52.290;-1.474;2023-07-09T06:14:53;101186.25;;;20.21;73.21
55755;BME280;41674;52.290;-1.474;2023-07-09T06:17:23;101182.67;;;19.99;74.05
55755;BME280;41674;52.290;-1.474;2023-07-09T06:19:52;101176.20;;;19.85;75.16
55755;BME280;41674;52.290;-1.474;2023-07-09T06:22:22;101182.36;;;19.78;75.62
55755;BME280;41674;52.290;-1.474;2023-07-09T06:24:52;101190.97;;;19.90;75.51
55755;BME280;41674;52.290;-1.474;2023-07-09T06:27:21;101203.28;;;19.23;76.23
55755;BME280;41674;52.290;-1.474;2023-07-09T06:29:50;101214.50;;;19.29;76.57
55755;BME280;41674;52.290;-1.474;2023-07-09T06:32:20;101238.15;;;18.83;79.26
55755;BME280;41674;52.290;-1.474;2023-07-09T06:34:49;101260.87;;;18.63;80.48
55755;BME280;41674;52.290;-1.474;2023-07-09T06:37:19;101262.81;;;18.59;80.47
55755;BME280;41674;52.290;-1.474;2023-07-09T06:39:49;101266.35;;;19.25;79.83
55755;BME280;41674;52.290;-1.474;2023-07-09T06:42:18;101267.98;;;18.86;80.43
55755;BME280;41674;52.290;-1.474;2023-07-09T06:44:48;101269.41;;;18.61;83.30
55755;BME280;41674;52.290;-1.474;2023-07-09T06:47:17;101263.63;;;18.77;82.42
55755;BME280;41674;52.290;-1.474;2023-07-09T06:49:52;101256.04;;;18.67;82.51
55755;BME280;41674;52.290;-1.474;2023-07-09T06:52:17;101242.37;;;19.48;78.60
55755;BME280;41674;52.290;-1.474;2023-07-09T06:54:46;101233.74;;;19.03;80.12
55755;BME280;41674;52.290;-1.474;2023-07-09T06:57:16;101232.59;;;19.53;80.11
55755;BME280;41674;52.290;-1.474;2023-07-09T06:59:45;101237.12;;;19.53;79.49
55755;BME280;41674;52.290;-1.474;2023-07-09T07:02:14;101243.61;;;16.84;90.76
55755;BME280;41674;52.290;-1.474;2023-07-09T07:04:44;101233.54;;;16.93;92.70
55755;BME280;41674;52.290;-1.474;2023-07-09T07:07:13;101249.79;;;18.45;85.22
55755;BME280;41674;52.290;-1.474;2023-07-09T07:09:43;101247.96;;;18.78;82.43
55755;BME280;41674;52.290;-1.474;2023-07-09T07:12:22;101235.04;;;19.28;81.67
55755;BME280;41674;52.290;-1.474;2023-07-09T07:14:42;101257.01;;;19.30;80.35
55755;BME280;41674;52.290;-1.474;2023-07-09T07:17:12;101267.04;;;19.49;80.55
55755;BME280;41674;52.290;-1.474;2023-07-09T07:19:41;101264.42;;;19.25;81.71
55755;BME280;41674;52.290;-1.474;2023-07-09T07:22:11;101280.27;;;18.70;82.27
55755;BME280;41674;52.290;-1.474;2023-07-09T07:24:40;101283.53;;;18.86;79.26
55755;BME280;41674;52.290;-1.474;2023-07-09T07:27:10;101290.62;;;19.70;76.68
55755;BME280;41674;52.290;-1.474;2023-07-09T07:29:39;101310.95;;;18.90;77.07
55755;BME280;41674;52.290;-1.474;2023-07-09T07:32:09;101313.85;;;19.35;75.93
55755;BME280;41674;52.290;-1.474;2023-07-09T07:34:38;101301.67;;;19.63;75.57
55755;BME280;41674;52.290;-1.474;2023-07-09T07:37:08;101284.79;;;19.44;76.55
55755;BME280;41674;52.290;-1.474;2023-07-09T07:39:37;101290.29;;;19.56;74.51
55755;BME280;41674;52.290;-1.474;2023-07-09T07:42:07;101306.85;;;19.71;73.88
55755;BME280;41674;52.290;-1.474;2023-07-09T07:44:37;101308.34;;;19.76;73.71
55755;BME280;41674;52.290;-1.474;2023-07-09T07:47:06;101285.66;;;19.07;76.10
55755;BME280;41674;52.290;-1.474;2023-07-09T07:49:37;101302.15;;;18.08;78.49
55755;BME280;41674;52.290;-1.474;2023-07-09T07:52:06;101300.61;;;19.03;77.07
55755;BME280;41674;52.290;-1.474;2023-07-09T07:54:34;101290.38;;;19.61;74.89
55755;BME280;41674;52.290;-1.474;2023-07-09T07:57:05;101273.50;;;19.29;76.15
55755;BME280;41674;52.290;-1.474;2023-07-09T07:59:35;101273.25;;;19.91;74.95
55755;BME280;41674;52.290;-1.474;2023-07-09T08:02:04;101282.47;;;19.90;74.12
55755;BME280;41674;52.290;-1.474;2023-07-09T08:04:33;101283.20;;;19.88;73.76
55755;BME280;41674;52.290;-1.474;2023-07-09T08:07:02;101276.88;;;19.87;74.00
55755;BME280;41674;52.290;-1.474;2023-07-09T08:09:32;101276.02;;;19.47;75.63
55755;BME280;41674;52.290;-1.474;2023-07-09T08:12:01;101279.29;;;18.29;80.14
55755;BME280;41674;52.290;-1.474;2023-07-09T08:14:31;101276.17;;;18.61;81.26
55755;BME280;41674;52.290;-1.474;2023-07-09T08:17:00;101260.73;;;19.11;79.91
55755;BME280;41674;52.290;-1.474;2023-07-09T08:19:30;101251.28;;;18.91;80.39
55755;BME280;41674;52.290;-1.474;2023-07-09T08:22:00;101237.31;;;18.79;82.35
55755;BME280;41674;52.290;-1.474;2023-07-09T08:24:29;101232.87;;;19.50;80.77
55755;BME280;41674;52.290;-1.474;2023-07-09T08:26:58;101248.80;;;19.47;79.71
55755;BME280;41674;52.290;-1.474;2023-07-09T08:29:28;101250.33;;;19.66;78.88
55755;BME280;41674;52.290;-1.474;2023-07-09T08:31:58;101251.01;;;19.11;79.21
55755;BME280;41674;52.290;-1.474;2023-07-09T08:34:27;101259.30;;;19.34;79.43
55755;BME280;41674;52.290;-1.474;2023-07-09T08:36:57;101267.44;;;19.20;80.62
55755;BME280;41674;52.290;-1.474;2023-07-09T08:39:26;101257.11;;;19.59;80.45
55755;BME280;41674;52.290;-1.474;2023-07-09T08:42:06;101249.19;;;19.44;80.28
55755;BME280;41674;52.290;-1.474;2023-07-09T08:47:00;101249.77;;;19.48;82.57
55755;BME280;41674;52.290;-1.474;2023-07-09T08:49:33;101252.30;;;20.06;80.42
55755;BME280;41674;52.290;-1.474;2023-07-09T08:51:54;101252.71;;;19.12;78.83
55755;BME280;41674;52.290;-1.474;2023-07-09T08:54:27;101254.77;;;19.89;79.81
55755;BME280;41674;52.290;-1.474;2023-07-09T08:56:54;101253.12;;;20.23;77.25
55755;BME280;41674;52.290;-1.474;2023-07-09T08:59:23;101248.40;;;19.32;81.90
55755;BME280;41674;52.290;-1.474;2023-07-09T09:01:53;101246.05;;;20.16;77.71
55755;BME280;41674;52.290;-1.474;2023-07-09T09:04:25;101246.02;;;19.33;78.52
55755;BME280;41674;52.290;-1.474;2023-07-09T09:06:57;101238.20;;;19.97;77.47
55755;BME280;41674;52.290;-1.474;2023-07-09T09:09:28;101243.78;;;19.60;75.24
55755;BME280;41674;52.290;-1.474;2023-07-09T09:11:55;101249.51;;;18.66;77.30
55755;BME280;41674;52.290;-1.474;2023-07-09T09:14:26;101244.41;;;19.42;75.44
55755;BME280;41674;52.290;-1.474;2023-07-09T09:16:50;101245.32;;;20.16;74.02
55755;BME280;41674;52.290;-1.474;2023-07-09T09:19:23;101245.66;;;20.18;73.45
55755;BME280;41674;52.290;-1.474;2023-07-09T09:21:51;101249.76;;;19.85;74.12
55755;BME280;41674;52.290;-1.474;2023-07-09T09:24:20;101252.77;;;19.53;72.88
55755;BME280;41674;52.290;-1.474;2023-07-09T09:26:49;101254.83;;;19.92;76.22
55755;BME280;41674;52.290;-1.474;2023-07-09T09:29:17;101253.59;;;20.49;71.68
55755;BME280;41674;52.290;-1.474;2023-07-09T09:31:52;101253.17;;;19.85;70.73
55755;BME280;41674;52.290;-1.474;2023-07-09T09:34:18;101259.01;;;18.89;72.65
55755;BME280;41674;52.290;-1.474;2023-07-09T09:36:46;101255.16;;;19.29;71.95
55755;BME280;41674;52.290;-1.474;2023-07-09T09:39:17;101255.88;;;19.33;71.50
55755;BME280;41674;52.290;-1.474;2023-07-09T09:41:45;101260.73;;;19.82;71.49
55755;BME280;41674;52.290;-1.474;2023-07-09T09:44:20;101260.76;;;19.67;68.01
55755;BME280;41674;52.290;-1.474;2023-07-09T09:46:43;101267.70;;;20.07;66.52
55755;BME280;41674;52.290;-1.474;2023-07-09T09:49:13;101271.44;;;20.19;66.48
55755;BME280;41674;52.290;-1.474;2023-07-09T09:51:45;101269.51;;;19.82;66.40
55755;BME280;41674;52.290;-1.474;2023-07-09T09:54:17;101268.52;;;20.53;68.90
55755;BME280;41674;52.290;-1.474;2023-07-09T09:56:42;101272.40;;;20.07;67.99
55755;BME280;41674;52.290;-1.474;2023-07-09T09:59:19;101276.10;;;19.30;69.35
55755;BME280;41674;52.290;-1.474;2023-07-09T10:01:41;101279.98;;;18.70;69.37
55755;BME280;41674;52.290;-1.474;2023-07-09T10:04:16;101279.98;;;19.82;69.60
55755;BME280;41674;52.290;-1.474;2023-07-09T10:06:42;101278.25;;;19.54;69.27
55755;BME280;41674;52.290;-1.474;2023-07-09T10:09:20;101274.05;;;20.20;68.35
55755;BME280;41674;52.290;-1.474;2023-07-09T10:11:46;101272.25;;;19.81;68.16
55755;BME280;41674;52.290;-1.474;2023-07-09T10:14:24;101272.11;;;20.95;65.70
55755;BME280;41674;52.290;-1.474;2023-07-09T10:16:43;101274.92;;;20.24;69.36
55755;BME280;41674;52.290;-1.474;2023-07-09T10:19:14;101274.82;;;20.50;65.58
55755;BME280;41674;52.290;-1.474;2023-07-09T10:21:43;101275.53;;;20.06;65.38
55755;BME280;41674;52.290;-1.474;2023-07-09T10:24:16;101276.70;;;20.97;66.89
55755;BME280;41674;52.290;-1.474;2023-07-09T10:26:40;101263.19;;;20.89;65.63
55755;BME280;41674;52.290;-1.474;2023-07-09T10:29:18;101256.00;;;21.14;65.02
55755;BME280;41674;52.290;-1.474;2023-07-09T10:31:40;101245.84;;;21.20;61.06
55755;BME280;41674;52.290;-1.474;2023-07-09T10:34:13;101242.82;;;20.75;62.28
55755;BME280;41674;52.290;-1.474;2023-07-09T10:36:57;101246.41;;;21.21;61.10
55755;BME280;41674;52.290;-1.474;2023-07-09T10:39:07;101243.46;;;22.21;61.45
55755;BME280;41674;52.290;-1.474;2023-07-09T10:41:36;101242.18;;;21.74;58.35
55755;BME280;41674;52.290;-1.474;2023-07-09T10:44:08;101238.36;;;21.15;54.01
55755;BME280;41674;52.290;-1.474;2023-07-09T10:46:33;101238.92;;;21.11;55.04
55755;BME280;41674;52.290;-1.474;2023-07-09T10:49:02;101229.17;;;21.19;57.31
55755;BME280;41674;52.290;-1.474;2023-07-09T10:51:33;101229.13;;;22.40;56.91
55755;BME280;41674;52.290;-1.474;2023-07-09T10:54:04;101230.40;;;21.52;52.58
55755;BME280;41674;52.290;-1.474;2023-07-09T10:56:34;101234.79;;;20.49;53.23
55755;BME280;41674;52.290;-1.474;2023-07-09T10:59:04;101236.63;;;20.47;53.33
55755;BME280;41674;52.290;-1.474;2023-07-09T11:01:32;101228.26;;;20.63;53.96
55755;BME280;41674;52.290;-1.474;2023-07-09T11:04:01;101236.68;;;20.45;51.52
55755;BME280;41674;52.290;-1.474;2023-07-09T11:06:33;101237.57;;;20.13;52.99
55755;BME280;41674;52.290;-1.474;2023-07-09T11:08:57;101234.76;;;20.20;53.97
55755;BME280;41674;52.290;-1.474;2023-07-09T11:11:34;101236.43;;;20.01;55.79
55755;BME280;41674;52.290;-1.474;2023-07-09T11:13:59;101226.66;;;20.45;55.19
55755;BME280;41674;52.290;-1.474;2023-07-09T11:16:28;101226.51;;;20.75;56.43
55755;BME280;41674;52.290;-1.474;2023-07-09T11:18:58;101225.80;;;21.15;58.06
55755;BME280;41674;52.290;-1.474;2023-07-09T11:21:26;101224.45;;;21.88;58.04
55755;BME280;41674;52.290;-1.474;2023-07-09T11:23:57;101221.08;;;22.37;50.87
55755;BME280;41674;52.290;-1.474;2023-07-09T11:26:26;101220.51;;;21.58;49.95
55755;BME280;41674;52.290;-1.474;2023-07-09T11:29:13;101221.78;;;21.36;51.21
55755;BME280;41674;52.290;-1.474;2023-07-09T11:31:25;101220.93;;;21.06;54.73
55755;BME280;41674;52.290;-1.474;2023-07-09T11:34:02;101220.48;;;21.23;53.31
55755;BME280;41674;52.290;-1.474;2023-07-09T11:36:26;101224.82;;;20.68;56.45
55755;BME280;41674;52.290;-1.474;2023-07-09T11:38:51;101226.37;;;21.52;55.69
55755;BME280;41674;52.290;-1.474;2023-07-09T11:41:28;101228.11;;;22.09;52.70
55755;BME280;41674;52.290;-1.474;2023-07-09T11:43:50;101232.32;;;21.88;51.14
55755;BME280;41674;52.290;-1.474;2023-07-09T11:46:24;101228.41;;;21.67;52.99
55755;BME280;41674;52.290;-1.474;2023-07-09T11:48:51;101219.02;;;22.37;54.37
55755;BME280;41674;52.290;-1.474;2023-07-09T11:51:25;101219.37;;;21.70;52.88
55755;BME280;41674;52.290;-1.474;2023-07-09T11:53:52;101221.10;;;22.01;52.56
55755;BME280;41674;52.290;-1.474;2023-07-09T11:56:19;101216.17;;;22.21;50.35
55755;BME280;41674;52.290;-1.474;2023-07-09T11:58:49;101214.84;;;22.50;51.49
55755;BME280;41674;52.290;-1.474;2023-07-09T12:01:21;101211.65;;;22.55;50.81
55755;BME280;41674;52.290;-1.474;2023-07-09T12:03:47;101209.20;;;21.96;52.89
55755;BME280;41674;52.290;-1.474;2023-07-09T12:06:19;101207.96;;;22.30;51.64
55755;BME280;41674;52.290;-1.474;2023-07-09T12:08:46;101200.93;;;22.93;49.62
55755;BME280;41674;52.290;-1.474;2023-07-09T12:11:21;101193.90;;;23.53;50.55
55755;BME280;41674;52.290;-1.474;2023-07-09T12:13:44;101198.15;;;23.54;50.98
55755;BME280;41674;52.290;-1.474;2023-07-09T12:16:22;101197.99;;;23.84;48.06
55755;BME280;41674;52.290;-1.474;2023-07-09T12:18:43;101198.31;;;24.12;49.26
55755;BME280;41674;52.290;-1.474;2023-07-09T12:21:13;101191.35;;;23.29;50.13
55755;BME280;41674;52.290;-1.474;2023-07-09T12:23:42;101188.85;;;23.10;50.63
55755;BME280;41674;52.290;-1.474;2023-07-09T12:26:14;101186.20;;;23.25;52.38
55755;BME280;41674;52.290;-1.474;2023-07-09T12:28:42;101189.31;;;23.52;53.10
55755;BME280;41674;52.290;-1.474;2023-07-09T12:31:13;101184.21;;;23.55;50.88
55755;BME280;41674;52.290;-1.474;2023-07-09T12:33:46;101186.58;;;23.84;52.34
55755;BME280;41674;52.290;-1.474;2023-07-09T12:36:11;101185.10;;;23.44;52.36
55755;BME280;41674;52.290;-1.474;2023-07-09T12:38:42;101182.34;;;23.52;49.43
55755;BME280;41674;52.290;-1.474;2023-07-09T12:41:17;101184.11;;;23.45;47.80
55755;BME280;41674;52.290;-1.474;2023-07-09T12:43:38;101182.21;;;24.47;49.96
55755;BME280;41674;52.290;-1.474;2023-07-09T12:46:07;101176.12;;;24.04;48.67
55755;BME280;41674;52.290;-1.474;2023-07-09T12:48:37;101178.14;;;23.65;49.43
55755;BME280;41674;52.290;-1.474;2023-07-09T12:51:08;101170.60;;;24.54;47.50
55755;BME280;41674;52.290;-1.474;2023-07-09T12:53:37;101175.72;;;23.88;48.38
55755;BME280;41674;52.290;-1.474;2023-07-09T12:56:13;101173.38;;;23.47;48.86
55755;BME280;41674;52.290;-1.474;2023-07-09T12:58:37;101163.69;;;24.46;47.45